Terminal Aerodrome Forecast
Issued by NWS

Current Version | Previous Version | Graphics & Text | Print | Product List | Glossary On
Versions: 1 2 3 4 5 6 7 8 9 10 11 12 13 14 15 16 17 18 19 20 21 22 23 24 25 26
000
FTUS41 KRLX 282123 AAA
TAFCKB
TAF AMD
KCKB 282123Z 2821/2918 23007KT P6SM VCTS BKN025CB
      TEMPO 2821/2823 26016G28KT 3SM +TSRA
     FM290000 VRB03KT 5SM -SHRA BR BKN022
     FM290300 00000KT 4SM BR OVC015
     FM290900 VRB03KT 3SM BR OVC008
     FM291400 27005KT 4SM HZ OVC018=

USA.gov is the U.S. government's official web portal to all federal, state and local government web resources and services.